sensor_id;sensor_type;location;lat;lon;timestamp;temperature;humidity
11399;DHT22;5755;48.116;11.608;2024-01-30T00:01:20;1.10;92.10
11399;DHT22;5755;48.116;11.608;2024-01-30T00:03:47;1.10;92.00
11399;DHT22;5755;48.116;11.608;2024-01-30T00:06:14;1.00;92.20
11399;DHT22;5755;48.116;11.608;2024-01-30T00:08:41;1.00;92.50
11399;DHT22;5755;48.116;11.608;2024-01-30T00:11:09;0.90;92.70
11399;DHT22;5755;48.116;11.608;2024-01-30T00:13:35;0.80;93.00
11399;DHT22;5755;48.116;11.608;2024-01-30T00:16:02;0.80;93.20
11399;DHT22;5755;48.116;11.608;2024-01-30T00:18:29;0.90;92.90
11399;DHT22;5755;48.116;11.608;2024-01-30T00:20:56;0.90;92.80
11399;DHT22;5755;48.116;11.608;2024-01-30T00:23:23;0.90;92.80
11399;DHT22;5755;48.116;11.608;2024-01-30T00:25:50;1.00;92.90
11399;DHT22;5755;48.116;11.608;2024-01-30T00:28:24;1.10;92.70
11399;DHT22;5755;48.116;11.608;2024-01-30T00:30:51;1.10;92.30
11399;DHT22;5755;48.116;11.608;2024-01-30T00:33:18;1.00;92.20
11399;DHT22;5755;48.116;11.608;2024-01-30T00:35:46;0.90;92.40
11399;DHT22;5755;48.116;11.608;2024-01-30T00:38:16;0.80;92.50
11399;DHT22;5755;48.116;11.608;2024-01-30T00:40:43;0.80;92.70
11399;DHT22;5755;48.116;11.608;2024-01-30T00:43:10;0.80;92.80
11399;DHT22;5755;48.116;11.608;2024-01-30T00:45:52;0.70;92.80
11399;DHT22;5755;48.116;11.608;2024-01-30T00:48:19;0.80;92.80
11399;DHT22;5755;48.116;11.608;2024-01-30T00:50:46;0.80;92.70
11399;DHT22;5755;48.116;11.608;2024-01-30T00:53:13;0.80;92.80
11399;DHT22;5755;48.116;11.608;2024-01-30T00:55:39;0.70;92.80
11399;DHT22;5755;48.116;11.608;2024-01-30T00:58:06;0.80;92.90
11399;DHT22;5755;48.116;11.608;2024-01-30T01:00:33;0.70;93.00
11399;DHT22;5755;48.116;11.608;2024-01-30T01:03:01;0.70;93.10
11399;DHT22;5755;48.116;11.608;2024-01-30T01:05:28;0.60;93.30
11399;DHT22;5755;48.116;11.608;2024-01-30T01:07:55;0.60;93.60
11399;DHT22;5755;48.116;11.608;2024-01-30T01:10:21;0.60;93.60
11399;DHT22;5755;48.116;11.608;2024-01-30T01:12:48;0.70;93.50
11399;DHT22;5755;48.116;11.608;2024-01-30T01:15:15;0.70;93.40
11399;DHT22;5755;48.116;11.608;2024-01-30T01:17:42;0.80;93.20
11399;DHT22;5755;48.116;11.608;2024-01-30T01:20:10;0.80;93.20
11399;DHT22;5755;48.116;11.608;2024-01-30T01:22:38;0.80;93.20
11399;DHT22;5755;48.116;11.608;2024-01-30T01:25:04;0.90;93.00
11399;DHT22;5755;48.116;11.608;2024-01-30T01:27:32;0.80;93.20
11399;DHT22;5755;48.116;11.608;2024-01-30T01:30:00;0.80;93.20
11399;DHT22;5755;48.116;11.608;2024-01-30T01:32:32;0.80;93.10
11399;DHT22;5755;48.116;11.608;2024-01-30T01:34:59;0.80;92.90
11399;DHT22;5755;48.116;11.608;2024-01-30T01:37:27;0.90;92.90
11399;DHT22;5755;48.116;11.608;2024-01-30T01:39:54;0.90;92.80
11399;DHT22;5755;48.116;11.608;2024-01-30T01:42:21;0.90;92.60
11399;DHT22;5755;48.116;11.608;2024-01-30T01:44:50;0.90;92.50
11399;DHT22;5755;48.116;11.608;2024-01-30T01:47:17;0.90;92.50
11399;DHT22;5755;48.116;11.608;2024-01-30T01:49:44;0.80;92.60
11399;DHT22;5755;48.116;11.608;2024-01-30T01:52:10;0.70;92.90
11399;DHT22;5755;48.116;11.608;2024-01-30T01:54:39;0.70;92.90
11399;DHT22;5755;48.116;11.608;2024-01-30T01:57:06;0.70;92.80
11399;DHT22;5755;48.116;11.608;2024-01-30T01:59:33;0.80;92.80
11399;DHT22;5755;48.116;11.608;2024-01-30T02:02:00;0.70;92.60
11399;DHT22;5755;48.116;11.608;2024-01-30T02:04:31;0.60;92.90
11399;DHT22;5755;48.116;11.608;2024-01-30T02:06:58;0.60;93.00
11399;DHT22;5755;48.116;11.608;2024-01-30T02:09:25;0.60;93.20
11399;DHT22;5755;48.116;11.608;2024-01-30T02:11:53;0.50;93.30
11399;DHT22;5755;48.116;11.608;2024-01-30T02:14:21;0.50;93.30
11399;DHT22;5755;48.116;11.608;2024-01-30T02:16:47;0.60;93.50
11399;DHT22;5755;48.116;11.608;2024-01-30T02:19:17;0.50;93.20
11399;DHT22;5755;48.116;11.608;2024-01-30T02:21:46;0.50;93.20
11399;DHT22;5755;48.116;11.608;2024-01-30T02:24:13;0.50;93.10
11399;DHT22;5755;48.116;11.608;2024-01-30T02:26:40;0.60;93.10
11399;DHT22;5755;48.116;11.608;2024-01-30T02:29:07;0.60;93.10
11399;DHT22;5755;48.116;11.608;2024-01-30T02:31:34;0.60;92.80
11399;DHT22;5755;48.116;11.608;2024-01-30T02:34:00;0.70;92.70
11399;DHT22;5755;48.116;11.608;2024-01-30T02:36:27;0.70;92.60
11399;DHT22;5755;48.116;11.608;2024-01-30T02:38:55;0.50;92.70
11399;DHT22;5755;48.116;11.608;2024-01-30T02:41:22;0.60;92.70
11399;DHT22;5755;48.116;11.608;2024-01-30T02:43:49;0.50;92.80
11399;DHT22;5755;48.116;11.608;2024-01-30T02:46:16;0.60;92.60
11399;DHT22;5755;48.116;11.608;2024-01-30T02:48:42;0.50;92.50
11399;DHT22;5755;48.116;11.608;2024-01-30T02:51:09;0.30;92.70
11399;DHT22;5755;48.116;11.608;2024-01-30T02:53:36;0.30;93.10
11399;DHT22;5755;48.116;11.608;2024-01-30T02:56:05;0.40;93.00
11399;DHT22;5755;48.116;11.608;2024-01-30T02:58:35;0.40;93.00
11399;DHT22;5755;48.116;11.608;2024-01-30T03:01:02;0.30;93.20
11399;DHT22;5755;48.116;11.608;2024-01-30T03:03:28;0.30;93.10
11399;DHT22;5755;48.116;11.608;2024-01-30T03:05:54;0.20;93.10
11399;DHT22;5755;48.116;11.608;2024-01-30T03:08:21;0.20;93.40
11399;DHT22;5755;48.116;11.608;2024-01-30T03:10:48;0.10;93.20
11399;DHT22;5755;48.116;11.608;2024-01-30T03:13:16;0.20;93.60
11399;DHT22;5755;48.116;11.608;2024-01-30T03:15:43;0.10;93.50
11399;DHT22;5755;48.116;11.608;2024-01-30T03:18:10;0.10;93.70
11399;DHT22;5755;48.116;11.608;2024-01-30T03:20:37;0.00;93.50
11399;DHT22;5755;48.116;11.608;2024-01-30T03:23:04;0.10;93.80
11399;DHT22;5755;48.116;11.608;2024-01-30T03:25:31;0.00;93.70
11399;DHT22;5755;48.116;11.608;2024-01-30T03:27:57;0.00;94.00
11399;DHT22;5755;48.116;11.608;2024-01-30T03:30:26;-0.10;94.00
11399;DHT22;5755;48.116;11.608;2024-01-30T03:32:52;-0.10;94.00
11399;DHT22;5755;48.116;11.608;2024-01-30T03:35:19;-0.20;94.00
11399;DHT22;5755;48.116;11.608;2024-01-30T03:37:46;-0.20;94.00
11399;DHT22;5755;48.116;11.608;2024-01-30T03:40:13;-0.10;94.30
11399;DHT22;5755;48.116;11.608;2024-01-30T03:42:40;0.10;94.10
11399;DHT22;5755;48.116;11.608;2024-01-30T03:45:08;0.00;94.00
11399;DHT22;5755;48.116;11.608;2024-01-30T03:47:36;0.10;94.00
11399;DHT22;5755;48.116;11.608;2024-01-30T03:50:04;0.20;93.90
11399;DHT22;5755;48.116;11.608;2024-01-30T03:52:31;0.20;93.60
11399;DHT22;5755;48.116;11.608;2024-01-30T03:54:57;0.30;93.50
11399;DHT22;5755;48.116;11.608;2024-01-30T03:57:25;0.30;93.40
11399;DHT22;5755;48.116;11.608;2024-01-30T03:59:52;0.30;93.40
11399;DHT22;5755;48.116;11.608;2024-01-30T04:02:19;0.30;93.30
11399;DHT22;5755;48.116;11.608;2024-01-30T04:04:47;0.40;93.20
11399;DHT22;5755;48.116;11.608;2024-01-30T04:07:13;0.40;92.90
11399;DHT22;5755;48.116;11.608;2024-01-30T04:09:40;0.30;92.60
11399;DHT22;5755;48.116;11.608;2024-01-30T04:12:07;0.30;92.80
11399;DHT22;5755;48.116;11.608;2024-01-30T04:14:34;0.10;93.00
11399;DHT22;5755;48.116;11.608;2024-01-30T04:17:01;0.00;93.50
11399;DHT22;5755;48.116;11.608;2024-01-30T04:19:27;-0.10;94.00
11399;DHT22;5755;48.116;11.608;2024-01-30T04:21:55;-0.20;94.00
11399;DHT22;5755;48.116;11.608;2024-01-30T04:24:22;-0.20;94.00
11399;DHT22;5755;48.116;11.608;2024-01-30T04:26:49;-0.30;94.10
11399;DHT22;5755;48.116;11.608;2024-01-30T04:29:16;-0.30;94.40
11399;DHT22;5755;48.116;11.608;2024-01-30T04:31:42;-0.30;94.50
11399;DHT22;5755;48.116;11.608;2024-01-30T04:34:09;-0.30;94.50
11399;DHT22;5755;48.116;11.608;2024-01-30T04:36:36;-0.30;94.60
11399;DHT22;5755;48.116;11.608;2024-01-30T04:39:04;-0.20;94.60
11399;DHT22;5755;48.116;11.608;2024-01-30T04:41:31;-0.10;94.40
11399;DHT22;5755;48.116;11.608;2024-01-30T04:43:58;-0.10;94.00
11399;DHT22;5755;48.116;11.608;2024-01-30T04:46:24;-0.10;94.00
11399;DHT22;5755;48.116;11.608;2024-01-30T04:48:57;-0.10;94.00
11399;DHT22;5755;48.116;11.608;2024-01-30T04:51:24;-0.10;94.30
11399;DHT22;5755;48.116;11.608;2024-01-30T04:53:51;0.00;94.00
11399;DHT22;5755;48.116;11.608;2024-01-30T04:56:19;0.00;94.00
11399;DHT22;5755;48.116;11.608;2024-01-30T04:58:46;0.00;94.00
11399;DHT22;5755;48.116;11.608;2024-01-30T05:01:15;0.10;94.30
11399;DHT22;5755;48.116;11.608;2024-01-30T05:03:41;0.00;94.00
11399;DHT22;5755;48.116;11.608;2024-01-30T05:06:08;0.10;94.30
11399;DHT22;5755;48.116;11.608;2024-01-30T05:08:35;0.10;93.70
11399;DHT22;5755;48.116;11.608;2024-01-30T05:11:02;0.10;93.70
11399;DHT22;5755;48.116;11.608;2024-01-30T05:13:30;0.10;93.50
11399;DHT22;5755;48.116;11.608;2024-01-30T05:16:02;0.10;93.50
11399;DHT22;5755;48.116;11.608;2024-01-30T05:18:29;0.10;93.60
11399;DHT22;5755;48.116;11.608;2024-01-30T05:20:56;0.10;93.50
11399;DHT22;5755;48.116;11.608;2024-01-30T05:23:23;0.10;93.50
11399;DHT22;5755;48.116;11.608;2024-01-30T05:25:49;0.10;93.30
11399;DHT22;5755;48.116;11.608;2024-01-30T05:28:16;0.10;93.20
11399;DHT22;5755;48.116;11.608;2024-01-30T05:30:56;0.00;93.30
11399;DHT22;5755;48.116;11.608;2024-01-30T05:33:23;-0.10;93.70
11399;DHT22;5755;48.116;11.608;2024-01-30T05:35:50;-0.20;94.00
11399;DHT22;5755;48.116;11.608;2024-01-30T05:38:19;-0.20;94.00
11399;DHT22;5755;48.116;11.608;2024-01-30T05:40:46;-0.30;94.20
11399;DHT22;5755;48.116;11.608;2024-01-30T05:43:13;-0.30;94.30
11399;DHT22;5755;48.116;11.608;2024-01-30T05:45:55;-0.20;94.40
11399;DHT22;5755;48.116;11.608;2024-01-30T05:48:22;-0.20;94.00
11399;DHT22;5755;48.116;11.608;2024-01-30T05:50:49;0.00;94.00
11399;DHT22;5755;48.116;11.608;2024-01-30T05:53:16;-0.10;94.00
11399;DHT22;5755;48.116;11.608;2024-01-30T05:55:42;-0.10;94.00
11399;DHT22;5755;48.116;11.608;2024-01-30T05:58:09;-0.20;94.00
11399;DHT22;5755;48.116;11.608;2024-01-30T06:00:36;-0.20;94.20
11399;DHT22;5755;48.116;11.608;2024-01-30T06:03:05;-0.30;94.00
11399;DHT22;5755;48.116;11.608;2024-01-30T06:05:32;-0.30;94.00
11399;DHT22;5755;48.116;11.608;2024-01-30T06:07:59;-0.30;94.20
11399;DHT22;5755;48.116;11.608;2024-01-30T06:10:26;-0.30;94.00
11399;DHT22;5755;48.116;11.608;2024-01-30T06:12:53;-0.30;94.00
11399;DHT22;5755;48.116;11.608;2024-01-30T06:15:20;-0.30;94.10
11399;DHT22;5755;48.116;11.608;2024-01-30T06:17:46;-0.20;94.00
11399;DHT22;5755;48.116;11.608;2024-01-30T06:20:15;-0.20;94.00
11399;DHT22;5755;48.116;11.608;2024-01-30T06:22:42;-0.10;94.00
11399;DHT22;5755;48.116;11.608;2024-01-30T06:25:10;0.00;93.80
11399;DHT22;5755;48.116;11.608;2024-01-30T06:27:37;0.00;93.40
11399;DHT22;5755;48.116;11.608;2024-01-30T06:30:05;-0.10;93.60
11399;DHT22;5755;48.116;11.608;2024-01-30T06:32:32;-0.10;93.90
11399;DHT22;5755;48.116;11.608;2024-01-30T06:35:00;-0.20;93.60
11399;DHT22;5755;48.116;11.608;2024-01-30T06:37:28;-0.20;94.00
11399;DHT22;5755;48.116;11.608;2024-01-30T06:39:54;-0.20;94.00
11399;DHT22;5755;48.116;11.608;2024-01-30T06:42:21;-0.20;94.00
11399;DHT22;5755;48.116;11.608;2024-01-30T06:44:48;-0.30;94.00
11399;DHT22;5755;48.116;11.608;2024-01-30T06:47:15;-0.30;94.00
11399;DHT22;5755;48.116;11.608;2024-01-30T06:49:42;-0.30;94.00
11399;DHT22;5755;48.116;11.608;2024-01-30T06:52:09;-0.30;94.00
11399;DHT22;5755;48.116;11.608;2024-01-30T06:54:37;-0.30;94.00
11399;DHT22;5755;48.116;11.608;2024-01-30T06:57:05;-0.20;94.00
11399;DHT22;5755;48.116;11.608;2024-01-30T06:59:34;-0.30;94.00
11399;DHT22;5755;48.116;11.608;2024-01-30T07:02:01;-0.20;94.00
11399;DHT22;5755;48.116;11.608;2024-01-30T07:04:33;0.00;94.00
11399;DHT22;5755;48.116;11.608;2024-01-30T07:07:02;0.10;93.60
11399;DHT22;5755;48.116;11.608;2024-01-30T07:09:30;0.10;93.50
11399;DHT22;5755;48.116;11.608;2024-01-30T07:12:12;0.10;93.60
11399;DHT22;5755;48.116;11.608;2024-01-30T07:14:39;0.20;93.50
11399;DHT22;5755;48.116;11.608;2024-01-30T07:17:06;0.30;93.00
11399;DHT22;5755;48.116;11.608;2024-01-30T07:19:32;0.40;92.90
11399;DHT22;5755;48.116;11.608;2024-01-30T07:22:00;0.40;93.00
11399;DHT22;5755;48.116;11.608;2024-01-30T07:24:27;0.30;93.00
11399;DHT22;5755;48.116;11.608;2024-01-30T07:26:54;0.30;93.10
11399;DHT22;5755;48.116;11.608;2024-01-30T07:29:46;0.20;93.40
11399;DHT22;5755;48.116;11.608;2024-01-30T07:32:20;0.40;93.20
11399;DHT22;5755;48.116;11.608;2024-01-30T07:34:47;0.50;92.80
11399;DHT22;5755;48.116;11.608;2024-01-30T07:37:14;0.50;92.80
11399;DHT22;5755;48.116;11.608;2024-01-30T07:39:42;0.60;92.70
11399;DHT22;5755;48.116;11.608;2024-01-30T07:42:09;0.60;92.70
11399;DHT22;5755;48.116;11.608;2024-01-30T07:44:37;0.60;93.00
11399;DHT22;5755;48.116;11.608;2024-01-30T07:47:05;0.60;93.10
11399;DHT22;5755;48.116;11.608;2024-01-30T07:49:32;0.60;93.40
11399;DHT22;5755;48.116;11.608;2024-01-30T07:51:59;0.60;93.50
11399;DHT22;5755;48.116;11.608;2024-01-30T07:54:26;0.70;93.50
11399;DHT22;5755;48.116;11.608;2024-01-30T07:56:52;0.90;93.90
11399;DHT22;5755;48.116;11.608;2024-01-30T07:59:19;1.30;93.80
11399;DHT22;5755;48.116;11.608;2024-01-30T08:01:51;1.80;92.50
11399;DHT22;5755;48.116;11.608;2024-01-30T08:04:18;2.00;91.30
11399;DHT22;5755;48.116;11.608;2024-01-30T08:06:44;2.40;90.50
11399;DHT22;5755;48.116;11.608;2024-01-30T08:09:11;2.80;89.70
11399;DHT22;5755;48.116;11.608;2024-01-30T08:11:38;3.30;84.30
11399;DHT22;5755;48.116;11.608;2024-01-30T08:14:05;3.40;80.80
11399;DHT22;5755;48.116;11.608;2024-01-30T08:16:31;3.30;79.40
11399;DHT22;5755;48.116;11.608;2024-01-30T08:19:00;3.10;81.90
11399;DHT22;5755;48.116;11.608;2024-01-30T08:21:26;3.10;83.40
11399;DHT22;5755;48.116;11.608;2024-01-30T08:23:54;3.00;84.20
11399;DHT22;5755;48.116;11.608;2024-01-30T08:26:20;3.10;88.60
11399;DHT22;5755;48.116;11.608;2024-01-30T08:28:47;3.20;87.80
11399;DHT22;5755;48.116;11.608;2024-01-30T08:31:14;3.20;86.70
11399;DHT22;5755;48.116;11.608;2024-01-30T08:33:42;3.30;85.40
11399;DHT22;5755;48.116;11.608;2024-01-30T08:36:10;3.50;82.20
11399;DHT22;5755;48.116;11.608;2024-01-30T08:38:37;3.80;80.30
11399;DHT22;5755;48.116;11.608;2024-01-30T08:41:04;4.10;77.90
11399;DHT22;5755;48.116;11.608;2024-01-30T08:43:31;4.30;76.40
11399;DHT22;5755;48.116;11.608;2024-01-30T08:45:59;4.60;76.20
11399;DHT22;5755;48.116;11.608;2024-01-30T08:48:25;4.90;74.00
11399;DHT22;5755;48.116;11.608;2024-01-30T08:50:52;5.20;70.00
11399;DHT22;5755;48.116;11.608;2024-01-30T08:53:20;5.30;70.00
11399;DHT22;5755;48.116;11.608;2024-01-30T08:55:47;5.30;71.80
11399;DHT22;5755;48.116;11.608;2024-01-30T08:58:14;5.50;73.10
11399;DHT22;5755;48.116;11.608;2024-01-30T09:00:41;5.70;71.40
11399;DHT22;5755;48.116;11.608;2024-01-30T09:03:08;6.00;70.70
11399;DHT22;5755;48.116;11.608;2024-01-30T09:05:34;6.50;71.30
11399;DHT22;5755;48.116;11.608;2024-01-30T09:08:01;7.30;62.50
11399;DHT22;5755;48.116;11.608;2024-01-30T09:10:30;8.10;49.80
11399;DHT22;5755;48.116;11.608;2024-01-30T09:12:57;8.90;44.30
11399;DHT22;5755;48.116;11.608;2024-01-30T09:15:24;9.80;34.10
11399;DHT22;5755;48.116;11.608;2024-01-30T09:17:51;10.40;29.00
11399;DHT22;5755;48.116;11.608;2024-01-30T09:20:17;10.80;27.40
11399;DHT22;5755;48.116;11.608;2024-01-30T09:22:45;11.70;23.60
11399;DHT22;5755;48.116;11.608;2024-01-30T09:25:15;12.60;20.90
11399;DHT22;5755;48.116;11.608;2024-01-30T09:27:43;13.30;20.90
11399;DHT22;5755;48.116;11.608;2024-01-30T09:30:10;13.60;19.80
11399;DHT22;5755;48.116;11.608;2024-01-30T09:32:39;13.90;19.30
11399;DHT22;5755;48.116;11.608;2024-01-30T09:35:07;14.20;18.80
11399;DHT22;5755;48.116;11.608;2024-01-30T09:37:33;14.30;18.90
11399;DHT22;5755;48.116;11.608;2024-01-30T09:40:00;15.50;15.40
11399;DHT22;5755;48.116;11.608;2024-01-30T09:42:33;16.70;10.60
11399;DHT22;5755;48.116;11.608;2024-01-30T09:45:02;17.80;9.50
11399;DHT22;5755;48.116;11.608;2024-01-30T09:47:32;17.50;10.40
11399;DHT22;5755;48.116;11.608;2024-01-30T09:49:59;17.30;10.20
11399;DHT22;5755;48.116;11.608;2024-01-30T09:52:28;17.80;9.50
11399;DHT22;5755;48.116;11.608;2024-01-30T09:54:55;17.90;9.60
11399;DHT22;5755;48.116;11.608;2024-01-30T09:57:22;18.60;8.40
11399;DHT22;5755;48.116;11.608;2024-01-30T09:59:49;18.60;6.90
11399;DHT22;5755;48.116;11.608;2024-01-30T10:02:19;18.50;7.70
11399;DHT22;5755;48.116;11.608;2024-01-30T10:04:48;19.40;4.10
11399;DHT22;5755;48.116;11.608;2024-01-30T10:07:15;19.00;4.40
11399;DHT22;5755;48.116;11.608;2024-01-30T10:09:42;18.30;5.90
11399;DHT22;5755;48.116;11.608;2024-01-30T10:12:09;17.70;4.40
11399;DHT22;5755;48.116;11.608;2024-01-30T10:14:38;16.90;5.80
11399;DHT22;5755;48.116;11.608;2024-01-30T10:17:04;16.50;6.20
11399;DHT22;5755;48.116;11.608;2024-01-30T10:19:33;16.10;7.60
11399;DHT22;5755;48.116;11.608;2024-01-30T10:22:00;16.20;8.50
11399;DHT22;5755;48.116;11.608;2024-01-30T10:24:27;16.70;5.50
11399;DHT22;5755;48.116;11.608;2024-01-30T10:26:55;16.60;7.70
11399;DHT22;5755;48.116;11.608;2024-01-30T10:29:22;16.40;8.70
11399;DHT22;5755;48.116;11.608;2024-01-30T10:31:58;17.40;7.60
11399;DHT22;5755;48.116;11.608;2024-01-30T10:34:25;17.90;6.70
11399;DHT22;5755;48.116;11.608;2024-01-30T10:37:00;18.00;7.20
11399;DHT22;5755;48.116;11.608;2024-01-30T10:39:32;17.50;8.40
11399;DHT22;5755;48.116;11.608;2024-01-30T10:42:04;18.10;5.70
11399;DHT22;5755;48.116;11.608;2024-01-30T10:44:37;18.50;3.10
11399;DHT22;5755;48.116;11.608;2024-01-30T10:47:11;17.60;5.90
11399;DHT22;5755;48.116;11.608;2024-01-30T10:49:40;16.50;8.70
11399;DHT22;5755;48.116;11.608;2024-01-30T10:52:09;15.80;8.20
11399;DHT22;5755;48.116;11.608;2024-01-30T10:54:37;15.40;8.00
11399;DHT22;5755;48.116;11.608;2024-01-30T10:57:07;15.30;7.90
11399;DHT22;5755;48.116;11.608;2024-01-30T10:59:37;15.00;7.70
11399;DHT22;5755;48.116;11.608;2024-01-30T11:02:04;15.10;7.80
11399;DHT22;5755;48.116;11.608;2024-01-30T11:04:36;15.50;8.10
11399;DHT22;5755;48.116;11.608;2024-01-30T11:07:14;15.40;8.00
11399;DHT22;5755;48.116;11.608;2024-01-30T11:09:48;15.00;7.70
11399;DHT22;5755;48.116;11.608;2024-01-30T11:12:16;14.80;7.60
11399;DHT22;5755;48.116;11.608;2024-01-30T11:14:43;15.20;7.90
11399;DHT22;5755;48.116;11.608;2024-01-30T11:17:10;15.50;8.10
11399;DHT22;5755;48.116;11.608;2024-01-30T11:19:38;15.80;6.60
11399;DHT22;5755;48.116;11.608;2024-01-30T11:22:06;15.70;8.20
11399;DHT22;5755;48.116;11.608;2024-01-30T11:24:39;15.10;6.80
11399;DHT22;5755;48.116;11.608;2024-01-30T11:27:08;14.70;7.60
11399;DHT22;5755;48.116;11.608;2024-01-30T11:29:35;14.40;9.30
11399;DHT22;5755;48.116;11.608;2024-01-30T11:32:03;14.10;7.10
11399;DHT22;5755;48.116;11.608;2024-01-30T11:34:32;14.30;7.30
11399;DHT22;5755;48.116;11.608;2024-01-30T11:37:03;14.40;7.30
11399;DHT22;5755;48.116;11.608;2024-01-30T11:39:30;14.30;7.30
11399;DHT22;5755;48.116;11.608;2024-01-30T11:41:59;14.20;7.20
11399;DHT22;5755;48.116;11.608;2024-01-30T11:44:26;13.90;8.10
11399;DHT22;5755;48.116;11.608;2024-01-30T11:46:52;13.60;7.80
11399;DHT22;5755;48.116;11.608;2024-01-30T11:49:19;13.50;8.70
11399;DHT22;5755;48.116;11.608;2024-01-30T11:51:46;13.50;8.30
11399;DHT22;5755;48.116;11.608;2024-01-30T11:54:14;13.60;8.40
11399;DHT22;5755;48.116;11.608;2024-01-30T11:56:42;13.60;9.60
11399;DHT22;5755;48.116;11.608;2024-01-30T11:59:11;13.50;8.60
11399;DHT22;5755;48.116;11.608;2024-01-30T12:01:38;13.50;7.80
11399;DHT22;5755;48.116;11.608;2024-01-30T12:04:05;13.40;9.00
11399;DHT22;5755;48.116;11.608;2024-01-30T12:06:34;13.40;8.50
11399;DHT22;5755;48.116;11.608;2024-01-30T12:09:02;13.50;7.90
11399;DHT22;5755;48.116;11.608;2024-01-30T12:11:30;13.50;8.10
11399;DHT22;5755;48.116;11.608;2024-01-30T12:13:57;13.50;6.80
11399;DHT22;5755;48.116;11.608;2024-01-30T12:16:25;13.50;7.30
11399;DHT22;5755;48.116;11.608;2024-01-30T12:18:59;13.50;8.40
11399;DHT22;5755;48.116;11.608;2024-01-30T12:21:26;13.70;8.20
11399;DHT22;5755;48.116;11.608;2024-01-30T12:23:53;13.80;7.70
11399;DHT22;5755;48.116;11.608;2024-01-30T12:26:20;14.10;7.10
11399;DHT22;5755;48.116;11.608;2024-01-30T12:28:48;14.10;7.10
11399;DHT22;5755;48.116;11.608;2024-01-30T12:31:15;14.20;7.20
11399;DHT22;5755;48.116;11.608;2024-01-30T12:33:44;14.10;7.10
11399;DHT22;5755;48.116;11.608;2024-01-30T12:36:11;14.20;7.20
11399;DHT22;5755;48.116;11.608;2024-01-30T12:38:38;14.20;7.30
11399;DHT22;5755;48.116;11.608;2024-01-30T12:41:07;14.10;7.10
11399;DHT22;5755;48.116;11.608;2024-01-30T12:43:35;13.90;7.00
11399;DHT22;5755;48.116;11.608;2024-01-30T12:46:02;13.80;7.00
11399;DHT22;5755;48.116;11.608;2024-01-30T12:48:29;13.70;7.00
11399;DHT22;5755;48.116;11.608;2024-01-30T12:50:58;13.70;6.90
11399;DHT22;5755;48.116;11.608;2024-01-30T12:53:25;13.70;6.90
11399;DHT22;5755;48.116;11.608;2024-01-30T12:55:52;13.60;6.80
11399;DHT22;5755;48.116;11.608;2024-01-30T12:58:19;13.60;6.80
11399;DHT22;5755;48.116;11.608;2024-01-30T13:00:46;13.60;6.80
11399;DHT22;5755;48.116;11.608;2024-01-30T13:03:13;13.60;6.80
11399;DHT22;5755;48.116;11.608;2024-01-30T13:05:40;13.70;6.90
11399;DHT22;5755;48.116;11.608;2024-01-30T13:08:09;13.70;6.90
11399;DHT22;5755;48.116;11.608;2024-01-30T13:10:35;13.80;7.00
11399;DHT22;5755;48.116;11.608;2024-01-30T13:13:02;13.90;7.00
11399;DHT22;5755;48.116;11.608;2024-01-30T13:15:29;14.00;7.10
11399;DHT22;5755;48.116;11.608;2024-01-30T13:17:56;14.10;7.10
11399;DHT22;5755;48.116;11.608;2024-01-30T13:20:23;14.10;7.10
11399;DHT22;5755;48.116;11.608;2024-01-30T13:22:50;14.20;7.20
11399;DHT22;5755;48.116;11.608;2024-01-30T13:25:18;14.20;7.20
11399;DHT22;5755;48.116;11.608;2024-01-30T13:27:45;14.20;7.20
11399;DHT22;5755;48.116;11.608;2024-01-30T13:30:12;14.20;7.20
11399;DHT22;5755;48.116;11.608;2024-01-30T13:32:39;14.20;7.20
11399;DHT22;5755;48.116;11.608;2024-01-30T13:35:09;14.20;7.20
11399;DHT22;5755;48.116;11.608;2024-01-30T13:37:36;14.20;7.20
11399;DHT22;5755;48.116;11.608;2024-01-30T13:40:05;14.10;7.20
11399;DHT22;5755;48.116;11.608;2024-01-30T13:42:34;14.10;7.10
11399;DHT22;5755;48.116;11.608;2024-01-30T13:45:01;14.00;7.10
11399;DHT22;5755;48.116;11.608;2024-01-30T13:47:28;13.80;7.00
11399;DHT22;5755;48.116;11.608;2024-01-30T13:49:55;13.70;6.90
11399;DHT22;5755;48.116;11.608;2024-01-30T13:52:22;13.60;6.80
11399;DHT22;5755;48.116;11.608;2024-01-30T13:54:48;13.50;6.80
11399;DHT22;5755;48.116;11.608;2024-01-30T13:57:15;13.40;6.70
11399;DHT22;5755;48.116;11.608;2024-01-30T13:59:43;13.40;7.60
11399;DHT22;5755;48.116;11.608;2024-01-30T14:02:10;13.40;6.70
11399;DHT22;5755;48.116;11.608;2024-01-30T14:04:37;13.40;6.70
11399;DHT22;5755;48.116;11.608;2024-01-30T14:07:04;13.30;6.60
11399;DHT22;5755;48.116;11.608;2024-01-30T14:09:31;13.20;6.60
11399;DHT22;5755;48.116;11.608;2024-01-30T14:11:59;13.10;7.00
11399;DHT22;5755;48.116;11.608;2024-01-30T14:14:26;12.90;7.40
11399;DHT22;5755;48.116;11.608;2024-01-30T14:16:54;12.80;7.40
11399;DHT22;5755;48.116;11.608;2024-01-30T14:19:21;12.70;7.20
11399;DHT22;5755;48.116;11.608;2024-01-30T14:21:48;12.70;7.70
11399;DHT22;5755;48.116;11.608;2024-01-30T14:24:15;12.60;8.50
11399;DHT22;5755;48.116;11.608;2024-01-30T14:26:42;12.50;8.60
11399;DHT22;5755;48.116;11.608;2024-01-30T14:29:09;12.50;8.90
11399;DHT22;5755;48.116;11.608;2024-01-30T14:31:36;12.50;9.10
11399;DHT22;5755;48.116;11.608;2024-01-30T14:34:04;12.40;8.50
11399;DHT22;5755;48.116;11.608;2024-01-30T14:36:45;12.40;9.20
11399;DHT22;5755;48.116;11.608;2024-01-30T14:39:12;12.40;9.30
11399;DHT22;5755;48.116;11.608;2024-01-30T14:41:40;12.30;9.60
11399;DHT22;5755;48.116;11.608;2024-01-30T14:44:07;12.30;10.00
11399;DHT22;5755;48.116;11.608;2024-01-30T14:46:34;12.30;10.00
11399;DHT22;5755;48.116;11.608;2024-01-30T14:49:01;12.20;10.60
11399;DHT22;5755;48.116;11.608;2024-01-30T14:51:45;12.10;11.00
11399;DHT22;5755;48.116;11.608;2024-01-30T14:54:23;12.00;11.10
11399;DHT22;5755;48.116;11.608;2024-01-30T14:57:06;11.90;11.30
11399;DHT22;5755;48.116;11.608;2024-01-30T15:00:02;11.80;11.80
11399;DHT22;5755;48.116;11.608;2024-01-30T15:02:54;11.70;12.30
11399;DHT22;5755;48.116;11.608;2024-01-30T15:05:21;11.80;14.00
11399;DHT22;5755;48.116;11.608;2024-01-30T15:08:05;11.80;13.80
11399;DHT22;5755;48.116;11.608;2024-01-30T15:10:38;11.80;14.00
11399;DHT22;5755;48.116;11.608;2024-01-30T15:13:15;11.80;13.50
11399;DHT22;5755;48.116;11.608;2024-01-30T15:15:59;11.80;14.30
11399;DHT22;5755;48.116;11.608;2024-01-30T15:18:28;11.70;13.80
11399;DHT22;5755;48.116;11.608;2024-01-30T15:20:55;11.80;13.20
11399;DHT22;5755;48.116;11.608;2024-01-30T15:23:23;11.80;15.00
11399;DHT22;5755;48.116;11.608;2024-01-30T15:25:50;11.80;13.70
11399;DHT22;5755;48.116;11.608;2024-01-30T15:28:17;11.80;13.80
11399;DHT22;5755;48.116;11.608;2024-01-30T15:30:45;11.80;14.00
11399;DHT22;5755;48.116;11.608;2024-01-30T15:33:12;11.80;13.90
11399;DHT22;5755;48.116;11.608;2024-01-30T15:35:39;11.70;13.60
11399;DHT22;5755;48.116;11.608;2024-01-30T15:38:07;11.60;14.20
11399;DHT22;5755;48.116;11.608;2024-01-30T15:40:35;11.40;14.70
11399;DHT22;5755;48.116;11.608;2024-01-30T15:43:02;11.50;14.70
11399;DHT22;5755;48.116;11.608;2024-01-30T15:45:29;11.50;15.30
11399;DHT22;5755;48.116;11.608;2024-01-30T15:47:57;11.40;14.80